ITY1112 LROP-LIMC
Flight info
| Callsign | ITY1112 |
|---|---|
| Flight time | N/A |
| Altitude | 38000 |
| Route | POLUN1M POLUN DCT VAMON DCT PADGU DCT DIRER DCT PEROT DCT MOSAV DCT NEMEK DCT BARPI/N0439F390 DCT ADOSA DCT IDREK DCT ELTAR DCT NOBMI DCT OSKOR DCT PEXUG PEXUG3E |
| Aircraft | A20N/M-SDE2E3FGHIRWXY/LB1 |
Departure
| Time | 2026-05-05 17:10 |
|---|---|
| Airport | Bucharest Henri Coandă International Airport (LROP) |
Arrival
| Time | N/A |
|---|---|
| Airport | Milan Malpensa International Airport (LIMC) |
| Time | Latitude | Longitude | Altitude | Speed | Heading |
|---|---|---|---|---|---|
| 2026-05-05 16:23 | 44.56843 | 26.07925 | 312 ft | 0 kts | 264° |
| 2026-05-05 16:37 | 44.56843 | 26.07929 | 312 ft | 1 kts | 264° |
| 2026-05-05 16:37 | 44.56844 | 26.07941 | 312 ft | 1 kts | 268° |
| 2026-05-05 16:38 | 44.56844 | 26.07953 | 312 ft | 1 kts | 283° |
| 2026-05-05 16:38 | 44.56841 | 26.07966 | 311 ft | 1 kts | 308° |
| 2026-05-05 16:38 | 44.56837 | 26.07972 | 312 ft | 0 kts | 352° |
| 2026-05-05 16:49 | 44.56841 | 26.07972 | 311 ft | 1 kts | 357° |
| 2026-05-05 16:49 | 44.56851 | 26.07975 | 310 ft | 2 kts | 9° |
| 2026-05-05 16:50 | 44.56869 | 26.07979 | 312 ft | 3 kts | 8° |
| 2026-05-05 16:50 | 44.56894 | 26.07983 | 313 ft | 4 kts | 6° |
| 2026-05-05 16:50 | 44.56918 | 26.08005 | 313 ft | 4 kts | 50° |
| 2026-05-05 16:50 | 44.56929 | 26.08049 | 313 ft | 6 kts | 78° |
| 2026-05-05 16:51 | 44.56935 | 26.08110 | 312 ft | 7 kts | 84° |
| 2026-05-05 16:51 | 44.56941 | 26.08185 | 314 ft | 9 kts | 84° |
| 2026-05-05 16:51 | 44.56947 | 26.08277 | 314 ft | 10 kts | 84° |
| 2026-05-05 16:51 | 44.56951 | 26.08330 | 314 ft | 5 kts | 84° |
| 2026-05-05 16:52 | 44.56957 | 26.08356 | 314 ft | 0 kts | 59° |
| 2026-05-05 16:53 | 44.56959 | 26.08360 | 314 ft | 1 kts | 57° |
| 2026-05-05 16:53 | 44.56967 | 26.08372 | 313 ft | 5 kts | 46° |
| 2026-05-05 16:54 | 44.57037 | 26.08384 | 315 ft | 14 kts | 354° |
| 2026-05-05 16:54 | 44.57166 | 26.08364 | 317 ft | 11 kts | 354° |
| 2026-05-05 16:54 | 44.57222 | 26.08395 | 317 ft | 9 kts | 58° |
| 2026-05-05 16:54 | 44.57231 | 26.08447 | 318 ft | 9 kts | 79° |
| 2026-05-05 16:55 | 44.57235 | 26.08470 | 318 ft | 1 kts | 78° |
| 2026-05-05 16:55 | 44.57241 | 26.08486 | 317 ft | 2 kts | 58° |
| 2026-05-05 16:55 | 44.57257 | 26.08496 | 318 ft | 3 kts | 13° |
| 2026-05-05 16:55 | 44.57280 | 26.08497 | 318 ft | 4 kts | 354° |
| 2026-05-05 16:56 | 44.57322 | 26.08490 | 319 ft | 11 kts | 354° |
| 2026-05-05 16:56 | 44.57402 | 26.08479 | 318 ft | 13 kts | 353° |
| 2026-05-05 16:56 | 44.57493 | 26.08465 | 320 ft | 5 kts | 354° |
| 2026-05-05 16:56 | 44.57494 | 26.08465 | 320 ft | 0 kts | 354° |
| 2026-05-05 16:57 | 44.57495 | 26.08466 | 320 ft | 0 kts | 5° |
| 2026-05-05 16:57 | 44.57500 | 26.08468 | 320 ft | 1 kts | 13° |
| 2026-05-05 16:57 | 44.57504 | 26.08475 | 320 ft | 1 kts | 47° |
| 2026-05-05 16:57 | 44.57504 | 26.08486 | 320 ft | 3 kts | 91° |
| 2026-05-05 16:58 | 44.57500 | 26.08585 | 320 ft | 18 kts | 85° |
| 2026-05-05 16:58 | 44.57518 | 26.08824 | 319 ft | 32 kts | 84° |
| 2026-05-05 16:58 | 44.57541 | 26.09114 | 318 ft | 7 kts | 85° |
| 2026-05-05 16:58 | 44.57549 | 26.09236 | 318 ft | 21 kts | 84° |
| 2026-05-05 16:59 | 44.57564 | 26.09428 | 317 ft | 24 kts | 83° |
| 2026-05-05 16:59 | 44.57574 | 26.09546 | 317 ft | 13 kts | 84° |
| 2026-05-05 16:59 | 44.57576 | 26.09578 | 317 ft | 0 kts | 85° |
| 2026-05-05 17:01 | 44.57576 | 26.09585 | 317 ft | 5 kts | 85° |
| 2026-05-05 17:01 | 44.57585 | 26.09710 | 317 ft | 21 kts | 84° |
| 2026-05-05 17:01 | 44.57603 | 26.09942 | 317 ft | 24 kts | 85° |
| 2026-05-05 17:02 | 44.57624 | 26.10229 | 316 ft | 35 kts | 84° |
| 2026-05-05 17:02 | 44.57640 | 26.10443 | 314 ft | 20 kts | 83° |
| 2026-05-05 17:02 | 44.57658 | 26.10697 | 315 ft | 33 kts | 84° |
| 2026-05-05 17:02 | 44.57680 | 26.10987 | 314 ft | 27 kts | 84° |
| 2026-05-05 17:03 | 44.57700 | 26.11269 | 313 ft | 32 kts | 83° |
| 2026-05-05 17:03 | 44.57725 | 26.11589 | 313 ft | 36 kts | 84° |
| 2026-05-05 17:03 | 44.57750 | 26.11920 | 312 ft | 16 kts | 84° |
| 2026-05-05 17:03 | 44.57763 | 26.12072 | 312 ft | 19 kts | 84° |
| 2026-05-05 17:04 | 44.57779 | 26.12285 | 311 ft | 26 kts | 83° |
| 2026-05-05 17:04 | 44.57800 | 26.12559 | 310 ft | 31 kts | 84° |
| 2026-05-05 17:04 | 44.57814 | 26.12718 | 310 ft | 11 kts | 86° |
| 2026-05-05 17:04 | 44.57828 | 26.12833 | 312 ft | 13 kts | 63° |
| 2026-05-05 17:05 | 44.57884 | 26.12852 | 309 ft | 0 kts | 328° |
| 2026-05-05 17:06 | 44.57886 | 26.12851 | 311 ft | 1 kts | 327° |
| 2026-05-05 17:07 | 44.57900 | 26.12837 | 309 ft | 4 kts | 325° |
| 2026-05-05 17:07 | 44.57930 | 26.12808 | 309 ft | 7 kts | 323° |
| 2026-05-05 17:07 | 44.57972 | 26.12760 | 310 ft | 9 kts | 314° |
| 2026-05-05 17:07 | 44.57985 | 26.12703 | 308 ft | 0 kts | 267° |
| 2026-05-05 17:08 | 44.57985 | 26.12701 | 308 ft | 1 kts | 267° |
| 2026-05-05 17:08 | 44.57982 | 26.12674 | 310 ft | 16 kts | 262° |
| 2026-05-05 17:09 | 44.57947 | 26.12182 | 312 ft | 84 kts | 264° |
| 2026-05-05 17:09 | 44.57866 | 26.11139 | 312 ft | 137 kts | 264° |
| 2026-05-05 17:09 | 44.57761 | 26.09687 | 393 ft | 168 kts | 264° |
| 2026-05-05 17:09 | 44.57661 | 26.07974 | 589 ft | 189 kts | 267° |
| 2026-05-05 17:10 | 44.57576 | 26.06098 | 1071 ft | 205 kts | 266° |
| 2026-05-05 17:10 | 44.57467 | 26.04043 | 1077 ft | 216 kts | 264° |
| 2026-05-05 17:10 | 44.57220 | 26.02032 | 990 ft | 213 kts | 247° |
| 2026-05-05 17:10 | 44.56526 | 26.00225 | 933 ft | 216 kts | 241° |
| 2026-05-05 17:11 | 44.55772 | 25.98435 | 1090 ft | 212 kts | 240° |
| 2026-05-05 17:11 | 44.55015 | 25.96660 | 1463 ft | 215 kts | 240° |
| 2026-05-05 17:11 | 44.54255 | 25.94858 | 2119 ft | 216 kts | 241° |
| 2026-05-05 17:11 | 44.53511 | 25.93077 | 2884 ft | 218 kts | 241° |
| 2026-05-05 17:12 | 44.52763 | 25.91281 | 3567 ft | 224 kts | 241° |
| 2026-05-05 17:12 | 44.51965 | 25.89361 | 3984 ft | 243 kts | 240° |
| 2026-05-05 17:12 | 44.51079 | 25.87230 | 4346 ft | 264 kts | 240° |
| 2026-05-05 17:12 | 44.50161 | 25.85026 | 4682 ft | 284 kts | 240° |
| 2026-05-05 17:13 | 44.49145 | 25.82590 | 5000 ft | 305 kts | 240° |
| 2026-05-05 17:13 | 44.48083 | 25.80050 | 5525 ft | 315 kts | 240° |
| 2026-05-05 17:13 | 44.47021 | 25.77513 | 6250 ft | 318 kts | 240° |
| 2026-05-05 17:13 | 44.45946 | 25.74943 | 6967 ft | 321 kts | 240° |
| 2026-05-05 17:14 | 44.44847 | 25.72319 | 7675 ft | 325 kts | 240° |
| 2026-05-05 17:14 | 44.43683 | 25.69543 | 8400 ft | 329 kts | 240° |
| 2026-05-05 17:14 | 44.42533 | 25.66799 | 9124 ft | 332 kts | 240° |
| 2026-05-05 17:14 | 44.41358 | 25.63996 | 9833 ft | 335 kts | 240° |
| 2026-05-05 17:15 | 44.40184 | 25.61201 | 10515 ft | 339 kts | 240° |
| 2026-05-05 17:15 | 44.39000 | 25.58384 | 11176 ft | 342 kts | 240° |
| 2026-05-05 17:15 | 44.37853 | 25.55659 | 11797 ft | 346 kts | 240° |
| 2026-05-05 17:15 | 44.36628 | 25.52752 | 12436 ft | 349 kts | 240° |
| 2026-05-05 17:16 | 44.35405 | 25.49852 | 13052 ft | 352 kts | 240° |
| 2026-05-05 17:16 | 44.34152 | 25.46885 | 13660 ft | 356 kts | 240° |
| 2026-05-05 17:16 | 44.32911 | 25.43949 | 14247 ft | 359 kts | 240° |
| 2026-05-05 17:16 | 44.31643 | 25.40951 | 14822 ft | 362 kts | 240° |
| 2026-05-05 17:17 | 44.30386 | 25.37983 | 15381 ft | 365 kts | 240° |
| 2026-05-05 17:17 | 44.29110 | 25.34974 | 15929 ft | 368 kts | 240° |
| 2026-05-05 17:17 | 44.27808 | 25.31906 | 16471 ft | 371 kts | 240° |
| 2026-05-05 17:17 | 44.26492 | 25.28806 | 16998 ft | 374 kts | 240° |
| 2026-05-05 17:18 | 44.25263 | 25.25599 | 17503 ft | 376 kts | 250° |
| 2026-05-05 17:18 | 44.24704 | 25.22040 | 18002 ft | 378 kts | 267° |
| 2026-05-05 17:18 | 44.24933 | 25.18480 | 18468 ft | 382 kts | 284° |
| 2026-05-05 17:18 | 44.25815 | 25.15111 | 18917 ft | 385 kts | 292° |
| 2026-05-05 17:19 | 44.26835 | 25.11800 | 19374 ft | 388 kts | 293° |
| 2026-05-05 17:19 | 44.27895 | 25.08389 | 19844 ft | 390 kts | 292° |
| 2026-05-05 17:19 | 44.28951 | 25.04951 | 20299 ft | 393 kts | 292° |
| 2026-05-05 17:19 | 44.30003 | 25.01478 | 20741 ft | 396 kts | 292° |
| 2026-05-05 17:20 | 44.31048 | 24.97994 | 21147 ft | 399 kts | 292° |
| 2026-05-05 17:20 | 44.32110 | 24.94439 | 21637 ft | 399 kts | 292° |
| 2026-05-05 17:20 | 44.33166 | 24.90892 | 22401 ft | 391 kts | 292° |
| 2026-05-05 17:20 | 44.34192 | 24.87439 | 23265 ft | 380 kts | 292° |
| 2026-05-05 17:21 | 44.35186 | 24.84091 | 24166 ft | 367 kts | 292° |
| 2026-05-05 17:21 | 44.36137 | 24.80883 | 25040 ft | 354 kts | 292° |
| 2026-05-05 17:21 | 44.37040 | 24.77836 | 25893 ft | 338 kts | 292° |
| 2026-05-05 17:22 | 44.38820 | 24.71811 | 26631 ft | 338 kts | 291° |
| 2026-05-05 17:22 | 44.39715 | 24.68763 | 26888 ft | 340 kts | 290° |
| 2026-05-05 17:22 | 44.40415 | 24.65618 | 27131 ft | 341 kts | 284° |
| 2026-05-05 17:22 | 44.41002 | 24.62493 | 27357 ft | 344 kts | 284° |
| 2026-05-05 17:23 | 44.41623 | 24.59258 | 27591 ft | 345 kts | 284° |
| 2026-05-05 17:23 | 44.42252 | 24.56005 | 27815 ft | 348 kts | 284° |
| 2026-05-05 17:23 | 44.42878 | 24.52764 | 28037 ft | 349 kts | 284° |
| 2026-05-05 17:23 | 44.43512 | 24.49472 | 28250 ft | 351 kts | 284° |
| 2026-05-05 17:24 | 44.44147 | 24.46165 | 28466 ft | 353 kts | 284° |
| 2026-05-05 17:24 | 44.44568 | 24.43961 | 28608 ft | 354 kts | 284° |
| 2026-05-05 17:24 | 44.45416 | 24.39519 | 28875 ft | 356 kts | 284° |
| 2026-05-05 17:24 | 44.45833 | 24.37332 | 29008 ft | 358 kts | 284° |
| 2026-05-05 17:25 | 44.46472 | 24.33973 | 29195 ft | 359 kts | 284° |
| 2026-05-05 17:25 | 44.46898 | 24.31729 | 29347 ft | 360 kts | 284° |
| 2026-05-05 17:25 | 44.47736 | 24.27310 | 29588 ft | 362 kts | 284° |
| 2026-05-05 17:25 | 44.48365 | 24.23989 | 29767 ft | 364 kts | 284° |
| 2026-05-05 17:26 | 44.48991 | 24.20674 | 29944 ft | 365 kts | 284° |
| 2026-05-05 17:26 | 44.49632 | 24.17277 | 30130 ft | 367 kts | 284° |
| 2026-05-05 17:26 | 44.50268 | 24.13898 | 30285 ft | 369 kts | 284° |
| 2026-05-05 17:26 | 44.50911 | 24.10475 | 30485 ft | 369 kts | 284° |
| 2026-05-05 17:27 | 44.51544 | 24.07100 | 30819 ft | 366 kts | 284° |
| 2026-05-05 17:27 | 44.52180 | 24.03707 | 31008 ft | 367 kts | 284° |
| 2026-05-05 17:27 | 44.52820 | 24.00280 | 31170 ft | 368 kts | 284° |
| 2026-05-05 17:27 | 44.53455 | 23.96877 | 31305 ft | 370 kts | 284° |
| 2026-05-05 17:28 | 44.54098 | 23.93428 | 31469 ft | 371 kts | 284° |
| 2026-05-05 17:28 | 44.54742 | 23.89960 | 31627 ft | 372 kts | 284° |
| 2026-05-05 17:28 | 44.55387 | 23.86485 | 31790 ft | 373 kts | 284° |
| 2026-05-05 17:28 | 44.56024 | 23.83047 | 31920 ft | 375 kts | 284° |
| 2026-05-05 17:29 | 44.56664 | 23.79584 | 32071 ft | 376 kts | 284° |
| 2026-05-05 17:29 | 44.57296 | 23.76161 | 32223 ft | 377 kts | 284° |
| 2026-05-05 17:29 | 44.57944 | 23.72640 | 32345 ft | 378 kts | 284° |
| 2026-05-05 17:29 | 44.58656 | 23.68768 | 32525 ft | 379 kts | 284° |
| 2026-05-05 17:30 | 44.59225 | 23.65668 | 32634 ft | 380 kts | 284° |
| 2026-05-05 17:30 | 44.59863 | 23.62184 | 32745 ft | 381 kts | 284° |
| 2026-05-05 17:30 | 44.60513 | 23.58625 | 32873 ft | 382 kts | 284° |
| 2026-05-05 17:30 | 44.61159 | 23.55089 | 33009 ft | 383 kts | 284° |
| 2026-05-05 17:31 | 44.61813 | 23.51499 | 33147 ft | 384 kts | 284° |
| 2026-05-05 17:31 | 44.62469 | 23.47887 | 33273 ft | 384 kts | 284° |
| 2026-05-05 17:31 | 44.63111 | 23.44346 | 33381 ft | 385 kts | 284° |
| 2026-05-05 17:31 | 44.63754 | 23.40798 | 33497 ft | 386 kts | 284° |
| 2026-05-05 17:32 | 44.64407 | 23.37180 | 33596 ft | 388 kts | 284° |
| 2026-05-05 17:32 | 44.65055 | 23.33588 | 33701 ft | 389 kts | 284° |
| 2026-05-05 17:32 | 44.65709 | 23.29956 | 33806 ft | 390 kts | 284° |
| 2026-05-05 17:32 | 44.66358 | 23.26342 | 33914 ft | 390 kts | 284° |
| 2026-05-05 17:33 | 44.67018 | 23.22662 | 34019 ft | 391 kts | 284° |
| 2026-05-05 17:33 | 44.68316 | 23.15402 | 34221 ft | 393 kts | 283° |
| 2026-05-05 17:33 | 44.68970 | 23.11730 | 34344 ft | 393 kts | 283° |
| 2026-05-05 17:34 | 44.69619 | 23.08083 | 34435 ft | 394 kts | 283° |
| 2026-05-05 17:34 | 44.70923 | 23.00724 | 34601 ft | 396 kts | 283° |
| 2026-05-05 17:35 | 44.72234 | 22.93303 | 34774 ft | 397 kts | 283° |
| 2026-05-05 17:35 | 44.72894 | 22.89552 | 34886 ft | 397 kts | 283° |
| 2026-05-05 17:35 | 44.73549 | 22.85824 | 34977 ft | 398 kts | 283° |
| 2026-05-05 17:36 | 44.74852 | 22.78384 | 35125 ft | 400 kts | 283° |
| 2026-05-05 17:36 | 44.76163 | 22.70862 | 35234 ft | 402 kts | 283° |
| 2026-05-05 17:37 | 44.77457 | 22.63414 | 35391 ft | 403 kts | 283° |
| 2026-05-05 17:37 | 44.78786 | 22.55855 | 35515 ft | 405 kts | 284° |
| 2026-05-05 17:38 | 44.80152 | 22.48295 | 35678 ft | 406 kts | 284° |
| 2026-05-05 17:38 | 44.81525 | 22.40645 | 35745 ft | 408 kts | 284° |
| 2026-05-05 17:38 | 44.82207 | 22.36823 | 35920 ft | 406 kts | 283° |
| 2026-05-05 17:39 | 44.82883 | 22.33026 | 35855 ft | 410 kts | 283° |
| 2026-05-05 17:39 | 44.84248 | 22.25328 | 35939 ft | 412 kts | 283° |
| 2026-05-05 17:40 | 44.85602 | 22.17658 | 36066 ft | 413 kts | 283° |
| 2026-05-05 17:40 | 44.86960 | 22.09935 | 36233 ft | 413 kts | 283° |
| 2026-05-05 17:41 | 44.88309 | 22.02226 | 36363 ft | 413 kts | 283° |
| 2026-05-05 17:41 | 44.89666 | 21.94448 | 36475 ft | 414 kts | 283° |
| 2026-05-05 17:42 | 44.91026 | 21.86614 | 36473 ft | 418 kts | 283° |
| 2026-05-05 17:42 | 44.92373 | 21.78822 | 36616 ft | 417 kts | 283° |
| 2026-05-05 17:43 | 44.93718 | 21.71011 | 36747 ft | 417 kts | 283° |
| 2026-05-05 17:43 | 44.95065 | 21.63153 | 36842 ft | 418 kts | 283° |
| 2026-05-05 17:44 | 44.96389 | 21.55396 | 36930 ft | 418 kts | 283° |
| 2026-05-05 17:44 | 44.97712 | 21.47608 | 37001 ft | 419 kts | 283° |
| 2026-05-05 17:45 | 44.99055 | 21.39687 | 37099 ft | 419 kts | 283° |
| 2026-05-05 17:45 | 45.00477 | 21.31858 | 37199 ft | 419 kts | 284° |
| 2026-05-05 17:46 | 45.01929 | 21.24024 | 37288 ft | 419 kts | 284° |
| 2026-05-05 17:46 | 45.03374 | 21.16122 | 37373 ft | 419 kts | 284° |
| 2026-05-05 17:47 | 45.04799 | 21.08251 | 37442 ft | 419 kts | 284° |
| 2026-05-05 17:47 | 45.06211 | 21.00413 | 37517 ft | 418 kts | 284° |
| 2026-05-05 17:48 | 45.07610 | 20.92619 | 37567 ft | 419 kts | 284° |
| 2026-05-05 17:48 | 45.09013 | 20.84762 | 37625 ft | 419 kts | 284° |
| 2026-05-05 17:49 | 45.10407 | 20.76925 | 37681 ft | 418 kts | 284° |
| 2026-05-05 17:49 | 45.11792 | 20.69109 | 37737 ft | 418 kts | 284° |
| 2026-05-05 17:50 | 45.13162 | 20.61341 | 37785 ft | 418 kts | 283° |
| 2026-05-05 17:50 | 45.14541 | 20.53486 | 37828 ft | 418 kts | 283° |
| 2026-05-05 17:51 | 45.15908 | 20.45663 | 37862 ft | 418 kts | 283° |
| 2026-05-05 17:51 | 45.17281 | 20.37766 | 37898 ft | 418 kts | 283° |
| 2026-05-05 17:52 | 45.18655 | 20.29831 | 37931 ft | 418 kts | 283° |
| 2026-05-05 17:52 | 45.20005 | 20.21996 | 37958 ft | 418 kts | 283° |
| 2026-05-05 17:53 | 45.21354 | 20.14135 | 37995 ft | 417 kts | 283° |
| 2026-05-05 17:53 | 45.22700 | 20.06254 | 37999 ft | 418 kts | 283° |
| 2026-05-05 17:54 | 45.24046 | 19.98333 | 38000 ft | 418 kts | 283° |
| 2026-05-05 17:54 | 45.25391 | 19.90388 | 38000 ft | 419 kts | 283° |
| 2026-05-05 17:55 | 45.26714 | 19.82533 | 38000 ft | 420 kts | 283° |
| 2026-05-05 17:55 | 45.28045 | 19.74601 | 38001 ft | 421 kts | 283° |
| 2026-05-05 17:56 | 45.29373 | 19.66655 | 38000 ft | 421 kts | 283° |
| 2026-05-05 17:56 | 45.30698 | 19.58687 | 38000 ft | 422 kts | 283° |
| 2026-05-05 17:57 | 45.32028 | 19.50647 | 38000 ft | 423 kts | 283° |
| 2026-05-05 17:57 | 45.33131 | 19.43956 | 38001 ft | 424 kts | 283° |
| 2026-05-05 17:58 | 45.34459 | 19.35859 | 38001 ft | 425 kts | 283° |
| 2026-05-05 17:58 | 45.35750 | 19.27949 | 38000 ft | 425 kts | 283° |
| 2026-05-05 17:59 | 45.37078 | 19.19777 | 38000 ft | 425 kts | 282° |
| 2026-05-05 17:59 | 45.38401 | 19.11600 | 38000 ft | 425 kts | 282° |
| 2026-05-05 18:00 | 45.39714 | 19.03451 | 38000 ft | 425 kts | 282° |
| 2026-05-05 18:00 | 45.40554 | 18.95245 | 38000 ft | 425 kts | 276° |
| 2026-05-05 18:01 | 45.41260 | 18.86928 | 38000 ft | 425 kts | 277° |
| 2026-05-05 18:01 | 45.41964 | 18.78664 | 38000 ft | 425 kts | 276° |
| 2026-05-05 18:02 | 45.42660 | 18.70308 | 38000 ft | 425 kts | 276° |
| 2026-05-05 18:02 | 45.43344 | 18.61980 | 38000 ft | 425 kts | 276° |
| 2026-05-05 18:03 | 45.44021 | 18.53663 | 38000 ft | 425 kts | 276° |
| 2026-05-05 18:03 | 45.44685 | 18.45436 | 38000 ft | 425 kts | 276° |
| 2026-05-05 18:04 | 45.45335 | 18.37313 | 38000 ft | 425 kts | 276° |
| 2026-05-05 18:04 | 45.45983 | 18.29136 | 38000 ft | 425 kts | 276° |
| 2026-05-05 18:05 | 45.46624 | 18.20965 | 38000 ft | 425 kts | 276° |
| 2026-05-05 18:05 | 45.47246 | 18.12973 | 38000 ft | 425 kts | 276° |
| 2026-05-05 18:06 | 45.47873 | 18.04831 | 38000 ft | 425 kts | 276° |
| 2026-05-05 18:06 | 45.48504 | 17.96573 | 38000 ft | 425 kts | 276° |
| 2026-05-05 18:07 | 45.49136 | 17.88203 | 38000 ft | 426 kts | 276° |
| 2026-05-05 18:07 | 45.49738 | 17.80159 | 38001 ft | 427 kts | 276° |
| 2026-05-05 18:08 | 45.50361 | 17.71750 | 38000 ft | 428 kts | 276° |
| 2026-05-05 18:08 | 45.50975 | 17.63384 | 38000 ft | 428 kts | 276° |
| 2026-05-05 18:09 | 45.51585 | 17.54986 | 38000 ft | 427 kts | 276° |
| 2026-05-05 18:09 | 45.52182 | 17.46678 | 38000 ft | 426 kts | 276° |
| 2026-05-05 18:10 | 45.52779 | 17.38286 | 38000 ft | 427 kts | 275° |
| 2026-05-05 18:10 | 45.53352 | 17.30138 | 38001 ft | 426 kts | 275° |
| 2026-05-05 18:11 | 45.53895 | 17.22340 | 38000 ft | 424 kts | 275° |
| 2026-05-05 18:11 | 45.54430 | 17.14588 | 38000 ft | 425 kts | 275° |
| 2026-05-05 18:12 | 45.54958 | 17.06847 | 38000 ft | 424 kts | 275° |
| 2026-05-05 18:12 | 45.55483 | 16.99065 | 38000 ft | 424 kts | 275° |
| 2026-05-05 18:13 | 45.55907 | 16.91301 | 38001 ft | 424 kts | 270° |
| 2026-05-05 18:13 | 45.56008 | 16.83617 | 38000 ft | 424 kts | 271° |
| 2026-05-05 18:14 | 45.56145 | 16.75772 | 38000 ft | 424 kts | 271° |
| 2026-05-05 18:14 | 45.56271 | 16.67772 | 38000 ft | 424 kts | 271° |
| 2026-05-05 18:15 | 45.56383 | 16.59948 | 38000 ft | 424 kts | 271° |
| 2026-05-05 18:15 | 45.56490 | 16.52091 | 38000 ft | 423 kts | 271° |
| 2026-05-05 18:16 | 45.56587 | 16.44510 | 38000 ft | 423 kts | 271° |
| 2026-05-05 18:16 | 45.56676 | 16.37208 | 38000 ft | 423 kts | 271° |
| 2026-05-05 18:17 | 45.56767 | 16.29393 | 38000 ft | 423 kts | 271° |
| 2026-05-05 18:17 | 45.56853 | 16.21634 | 38000 ft | 423 kts | 271° |
| 2026-05-05 18:18 | 45.56934 | 16.13798 | 38000 ft | 424 kts | 271° |
| 2026-05-05 18:18 | 45.57009 | 16.06010 | 38000 ft | 424 kts | 271° |
| 2026-05-05 18:19 | 45.57080 | 15.98198 | 38000 ft | 424 kts | 271° |
| 2026-05-05 18:19 | 45.57146 | 15.90281 | 38000 ft | 423 kts | 270° |
| 2026-05-05 18:20 | 45.57206 | 15.82498 | 38000 ft | 423 kts | 270° |
| 2026-05-05 18:20 | 45.57262 | 15.74586 | 38000 ft | 423 kts | 270° |
| 2026-05-05 18:21 | 45.57308 | 15.67238 | 38000 ft | 423 kts | 270° |
| 2026-05-05 18:21 | 45.57349 | 15.59987 | 38000 ft | 423 kts | 270° |
| 2026-05-05 18:22 | 45.57388 | 15.52268 | 38000 ft | 423 kts | 270° |
| 2026-05-05 18:22 | 45.57422 | 15.44438 | 38000 ft | 423 kts | 270° |
| 2026-05-05 18:23 | 45.57451 | 15.36484 | 38001 ft | 425 kts | 270° |
| 2026-05-05 18:23 | 45.57477 | 15.28575 | 38000 ft | 423 kts | 270° |
| 2026-05-05 18:24 | 45.57568 | 15.20992 | 38000 ft | 423 kts | 271° |
| 2026-05-05 18:24 | 45.57687 | 15.13156 | 38000 ft | 424 kts | 271° |
| 2026-05-05 18:25 | 45.57791 | 15.05269 | 38000 ft | 425 kts | 271° |
| 2026-05-05 18:25 | 45.57884 | 14.97276 | 38001 ft | 426 kts | 271° |
| 2026-05-05 18:26 | 45.57971 | 14.89331 | 38000 ft | 425 kts | 271° |
| 2026-05-05 18:26 | 45.58054 | 14.81133 | 38001 ft | 426 kts | 271° |
| 2026-05-05 18:27 | 45.58127 | 14.73421 | 38000 ft | 426 kts | 271° |
| 2026-05-05 18:27 | 45.58195 | 14.65495 | 38001 ft | 426 kts | 270° |
| 2026-05-05 18:28 | 45.58291 | 14.53198 | 38001 ft | 428 kts | 270° |
| 2026-05-05 18:28 | 45.58348 | 14.45029 | 37999 ft | 429 kts | 270° |
| 2026-05-05 18:29 | 45.58399 | 14.36930 | 38001 ft | 430 kts | 270° |
| 2026-05-05 18:29 | 45.58443 | 14.29043 | 38001 ft | 428 kts | 270° |
| 2026-05-05 18:30 | 45.58481 | 14.21063 | 37999 ft | 424 kts | 270° |
| 2026-05-05 18:30 | 45.58513 | 14.13383 | 37999 ft | 424 kts | 270° |
| 2026-05-05 18:31 | 45.58541 | 14.05494 | 38000 ft | 426 kts | 270° |
| 2026-05-05 18:31 | 45.58562 | 13.97870 | 38001 ft | 425 kts | 270° |
| 2026-05-05 18:32 | 45.58578 | 13.90182 | 38000 ft | 425 kts | 270° |
| 2026-05-05 18:32 | 45.58588 | 13.83681 | 38000 ft | 423 kts | 270° |
| 2026-05-05 18:33 | 45.58595 | 13.75861 | 38001 ft | 421 kts | 270° |
| 2026-05-05 18:33 | 45.58597 | 13.68202 | 38000 ft | 422 kts | 270° |
| 2026-05-05 18:34 | 45.58593 | 13.60291 | 38000 ft | 421 kts | 270° |
| 2026-05-05 18:34 | 45.58586 | 13.52470 | 38000 ft | 422 kts | 270° |
| 2026-05-05 18:35 | 45.58760 | 13.44603 | 38000 ft | 421 kts | 273° |
| 2026-05-05 18:35 | 45.59069 | 13.36998 | 38000 ft | 421 kts | 273° |
| 2026-05-05 18:36 | 45.59350 | 13.29229 | 38000 ft | 421 kts | 272° |
| 2026-05-05 18:36 | 45.59608 | 13.21336 | 38000 ft | 421 kts | 272° |
| 2026-05-05 18:37 | 45.59856 | 13.13401 | 38000 ft | 421 kts | 272° |
| 2026-05-05 18:37 | 45.60090 | 13.05751 | 38000 ft | 421 kts | 272° |
| 2026-05-05 18:38 | 45.60320 | 12.98069 | 38000 ft | 421 kts | 272° |
| 2026-05-05 18:38 | 45.60546 | 12.90378 | 38000 ft | 421 kts | 272° |
| 2026-05-05 18:39 | 45.60774 | 12.82423 | 38000 ft | 421 kts | 272° |
| 2026-05-05 18:39 | 45.60992 | 12.74621 | 38000 ft | 421 kts | 272° |
| 2026-05-05 18:40 | 45.61204 | 12.66856 | 38000 ft | 421 kts | 272° |
| 2026-05-05 18:40 | 45.61416 | 12.58862 | 38000 ft | 421 kts | 272° |
| 2026-05-05 18:41 | 45.61629 | 12.50651 | 38000 ft | 421 kts | 272° |
| 2026-05-05 18:41 | 45.61825 | 12.42868 | 38000 ft | 421 kts | 272° |
| 2026-05-05 18:42 | 45.62024 | 12.34724 | 38000 ft | 421 kts | 272° |
| 2026-05-05 18:42 | 45.62218 | 12.26544 | 38000 ft | 421 kts | 272° |
| 2026-05-05 18:43 | 45.62408 | 12.18316 | 38000 ft | 421 kts | 272° |
| 2026-05-05 18:43 | 45.62590 | 12.10174 | 38000 ft | 421 kts | 271° |
| 2026-05-05 18:44 | 45.62768 | 12.01941 | 38000 ft | 421 kts | 271° |
| 2026-05-05 18:44 | 45.62939 | 11.93730 | 38000 ft | 421 kts | 271° |
| 2026-05-05 18:45 | 45.63104 | 11.85556 | 38000 ft | 421 kts | 271° |
| 2026-05-05 18:45 | 45.63265 | 11.77298 | 38000 ft | 421 kts | 271° |
| 2026-05-05 18:46 | 45.63417 | 11.69151 | 38000 ft | 421 kts | 271° |
| 2026-05-05 18:46 | 45.63567 | 11.60873 | 38000 ft | 421 kts | 271° |
| 2026-05-05 18:47 | 45.63708 | 11.52704 | 38000 ft | 421 kts | 271° |
| 2026-05-05 18:47 | 45.63845 | 11.44442 | 38000 ft | 421 kts | 271° |
| 2026-05-05 18:48 | 45.63972 | 11.36403 | 37999 ft | 422 kts | 271° |
| 2026-05-05 18:48 | 45.64092 | 11.28489 | 37999 ft | 423 kts | 271° |
| 2026-05-05 18:49 | 45.64205 | 11.20622 | 37999 ft | 424 kts | 271° |
| 2026-05-05 18:49 | 45.64314 | 11.12703 | 38000 ft | 426 kts | 271° |
| 2026-05-05 18:50 | 45.64420 | 11.04743 | 38000 ft | 427 kts | 271° |
| 2026-05-05 18:50 | 45.64509 | 10.96553 | 38000 ft | 427 kts | 270° |
| 2026-05-05 18:51 | 45.64566 | 10.88338 | 38000 ft | 423 kts | 270° |
| 2026-05-05 18:51 | 45.64618 | 10.80654 | 37997 ft | 422 kts | 270° |
| 2026-05-05 18:52 | 45.64664 | 10.74383 | 38002 ft | 423 kts | 270° |
| 2026-05-05 18:52 | 45.64718 | 10.66960 | 38000 ft | 420 kts | 270° |
| 2026-05-05 18:53 | 45.64767 | 10.59112 | 38000 ft | 420 kts | 270° |
| 2026-05-05 18:53 | 45.64800 | 10.51221 | 37987 ft | 422 kts | 270° |
| 2026-05-05 18:54 | 45.64829 | 10.43807 | 37757 ft | 421 kts | 270° |
| 2026-05-05 18:54 | 45.64844 | 10.39889 | 37422 ft | 422 kts | 270° |
| 2026-05-05 18:54 | 45.64858 | 10.36034 | 36884 ft | 423 kts | 270° |
| 2026-05-05 18:55 | 45.64872 | 10.31944 | 36282 ft | 422 kts | 270° |
| 2026-05-05 18:55 | 45.64883 | 10.27874 | 35683 ft | 422 kts | 270° |
| 2026-05-05 18:55 | 45.64893 | 10.23790 | 35072 ft | 422 kts | 270° |
| 2026-05-05 18:55 | 45.64902 | 10.19659 | 34466 ft | 421 kts | 270° |
| 2026-05-05 18:56 | 45.64909 | 10.15789 | 33883 ft | 421 kts | 270° |
| 2026-05-05 18:56 | 45.64914 | 10.11904 | 33304 ft | 421 kts | 270° |
| 2026-05-05 18:56 | 45.64931 | 10.08027 | 32723 ft | 420 kts | 271° |
| 2026-05-05 18:56 | 45.64974 | 10.03968 | 32129 ft | 420 kts | 271° |
| 2026-05-05 18:57 | 45.65020 | 10.00052 | 31538 ft | 419 kts | 271° |
| 2026-05-05 18:57 | 45.65066 | 9.96009 | 30930 ft | 419 kts | 271° |
| 2026-05-05 18:57 | 45.65105 | 9.92191 | 30347 ft | 418 kts | 271° |
| 2026-05-05 18:57 | 45.65142 | 9.88296 | 29618 ft | 421 kts | 271° |
| 2026-05-05 18:58 | 45.65174 | 9.84575 | 28914 ft | 424 kts | 271° |
| 2026-05-05 18:58 | 45.65208 | 9.80471 | 28138 ft | 427 kts | 270° |
| 2026-05-05 18:58 | 45.65242 | 9.76273 | 27351 ft | 430 kts | 270° |
| 2026-05-05 18:58 | 45.65272 | 9.72234 | 26630 ft | 431 kts | 270° |
| 2026-05-05 18:59 | 45.65299 | 9.68425 | 26315 ft | 422 kts | 270° |
| 2026-05-05 18:59 | 45.65325 | 9.64530 | 26123 ft | 410 kts | 270° |
| 2026-05-05 18:59 | 45.65350 | 9.60649 | 26013 ft | 396 kts | 270° |
| 2026-05-05 18:59 | 45.65371 | 9.57496 | 25998 ft | 383 kts | 270° |
| 2026-05-05 19:00 | 45.65395 | 9.53890 | 25997 ft | 366 kts | 270° |
| 2026-05-05 19:00 | 45.65418 | 9.50385 | 25999 ft | 354 kts | 270° |
| 2026-05-05 19:00 | 45.65440 | 9.46961 | 26001 ft | 360 kts | 270° |
| 2026-05-05 19:00 | 45.65460 | 9.43634 | 26000 ft | 363 kts | 270° |
| 2026-05-05 19:01 | 45.65481 | 9.40294 | 26000 ft | 361 kts | 270° |
| 2026-05-05 19:01 | 45.65500 | 9.37142 | 26000 ft | 361 kts | 270° |
| 2026-05-05 19:01 | 45.65522 | 9.33655 | 26000 ft | 361 kts | 270° |
| 2026-05-05 19:01 | 45.65528 | 9.30324 | 26000 ft | 362 kts | 269° |
| 2026-05-05 19:02 | 45.65471 | 9.26867 | 26000 ft | 363 kts | 268° |
| 2026-05-05 19:02 | 45.65407 | 9.23561 | 26000 ft | 363 kts | 268° |
| 2026-05-05 19:02 | 45.65344 | 9.20322 | 26000 ft | 363 kts | 268° |
| 2026-05-05 19:02 | 45.65275 | 9.16758 | 26000 ft | 363 kts | 268° |
| 2026-05-05 19:03 | 45.65207 | 9.13283 | 26000 ft | 363 kts | 268° |
| 2026-05-05 19:03 | 45.65139 | 9.09870 | 26000 ft | 363 kts | 268° |
| 2026-05-05 19:03 | 45.65072 | 9.06455 | 26000 ft | 363 kts | 268° |
| 2026-05-05 19:03 | 45.65005 | 9.03088 | 26000 ft | 363 kts | 268° |
| 2026-05-05 19:04 | 45.64940 | 8.99818 | 26000 ft | 363 kts | 268° |
| 2026-05-05 19:04 | 45.64762 | 8.96537 | 25993 ft | 362 kts | 257° |
| 2026-05-05 19:04 | 45.63915 | 8.93373 | 25860 ft | 361 kts | 239° |
| 2026-05-05 19:04 | 45.62370 | 8.90743 | 25500 ft | 362 kts | 220° |
| 2026-05-05 19:05 | 45.60447 | 8.89092 | 25095 ft | 362 kts | 201° |
| 2026-05-05 19:05 | 45.58140 | 8.88380 | 24624 ft | 363 kts | 182° |
| 2026-05-05 19:05 | 45.55758 | 8.88817 | 24152 ft | 364 kts | 162° |
| 2026-05-05 19:05 | 45.53617 | 8.90373 | 23677 ft | 364 kts | 143° |
| 2026-05-05 19:06 | 45.51976 | 8.92845 | 23213 ft | 364 kts | 123° |
| 2026-05-05 19:06 | 45.50914 | 8.95875 | 22777 ft | 363 kts | 114° |
| 2026-05-05 19:06 | 45.49994 | 8.98965 | 22256 ft | 364 kts | 113° |
| 2026-05-05 19:06 | 45.49024 | 9.02236 | 21533 ft | 370 kts | 113° |
| 2026-05-05 19:07 | 45.48074 | 9.05442 | 21190 ft | 365 kts | 113° |
| 2026-05-05 19:07 | 45.47526 | 9.07288 | 21090 ft | 359 kts | 113° |
| 2026-05-05 19:07 | 45.46579 | 9.10485 | 21003 ft | 347 kts | 113° |
| 2026-05-05 19:07 | 45.45330 | 9.14700 | 21001 ft | 354 kts | 113° |
| 2026-05-05 19:08 | 45.44408 | 9.17808 | 20999 ft | 354 kts | 114° |
| 2026-05-05 19:08 | 45.43705 | 9.20688 | 21001 ft | 353 kts | 99° |
| 2026-05-05 19:08 | 45.43652 | 9.23851 | 21002 ft | 354 kts | 80° |
| 2026-05-05 19:08 | 45.44041 | 9.25938 | 21001 ft | 353 kts | 66° |
| 2026-05-05 19:09 | 45.45241 | 9.28729 | 21001 ft | 351 kts | 45° |
| 2026-05-05 19:09 | 45.46976 | 9.30702 | 21001 ft | 349 kts | 25° |
| 2026-05-05 19:09 | 45.49081 | 9.31719 | 20998 ft | 345 kts | 6° |
| 2026-05-05 19:09 | 45.51342 | 9.32034 | 20890 ft | 343 kts | 2° |
| 2026-05-05 19:10 | 45.53611 | 9.32280 | 20610 ft | 341 kts | 2° |
| 2026-05-05 19:10 | 45.55797 | 9.32515 | 20252 ft | 340 kts | 2° |
| 2026-05-05 19:10 | 45.58001 | 9.32754 | 19848 ft | 338 kts | 2° |
| 2026-05-05 19:10 | 45.60312 | 9.33005 | 19435 ft | 336 kts | 2° |
| 2026-05-05 19:11 | 45.62539 | 9.33247 | 19033 ft | 334 kts | 2° |
| 2026-05-05 19:11 | 45.64670 | 9.33479 | 18649 ft | 332 kts | 2° |
| 2026-05-05 19:11 | 45.66816 | 9.33504 | 18242 ft | 328 kts | 348° |
| 2026-05-05 19:11 | 45.68764 | 9.32557 | 17814 ft | 322 kts | 327° |
| 2026-05-05 19:12 | 45.70312 | 9.30690 | 17389 ft | 318 kts | 306° |
| 2026-05-05 19:12 | 45.71281 | 9.28061 | 16962 ft | 314 kts | 284° |
| 2026-05-05 19:12 | 45.71563 | 9.25227 | 16576 ft | 312 kts | 274° |
| 2026-05-05 19:12 | 45.71700 | 9.22352 | 16204 ft | 310 kts | 273° |
| 2026-05-05 19:13 | 45.71840 | 9.19308 | 15800 ft | 308 kts | 273° |
| 2026-05-05 19:13 | 45.71978 | 9.16308 | 15415 ft | 306 kts | 273° |
| 2026-05-05 19:13 | 45.72107 | 9.13504 | 15066 ft | 303 kts | 273° |
| 2026-05-05 19:13 | 45.72232 | 9.10772 | 14719 ft | 301 kts | 273° |
| 2026-05-05 19:14 | 45.72365 | 9.07859 | 14330 ft | 299 kts | 273° |
| 2026-05-05 19:14 | 45.72498 | 9.04943 | 13936 ft | 298 kts | 273° |
| 2026-05-05 19:14 | 45.72364 | 9.02071 | 13523 ft | 296 kts | 253° |
| 2026-05-05 19:14 | 45.71483 | 8.99631 | 13110 ft | 296 kts | 230° |
| 2026-05-05 19:15 | 45.69896 | 8.97843 | 12668 ft | 298 kts | 206° |
| 2026-05-05 19:15 | 45.68120 | 8.96770 | 12305 ft | 297 kts | 203° |
| 2026-05-05 19:15 | 45.66273 | 8.95714 | 11945 ft | 294 kts | 203° |
| 2026-05-05 19:15 | 45.64405 | 8.94647 | 11563 ft | 293 kts | 203° |
| 2026-05-05 19:16 | 45.62566 | 8.93598 | 11196 ft | 290 kts | 203° |
| 2026-05-05 19:16 | 45.60811 | 8.92598 | 11049 ft | 288 kts | 203° |
| 2026-05-05 19:16 | 45.59092 | 8.91620 | 11003 ft | 291 kts | 203° |
| 2026-05-05 19:16 | 45.57345 | 8.90627 | 11000 ft | 290 kts | 203° |
| 2026-05-05 19:17 | 45.55586 | 8.89628 | 11000 ft | 290 kts | 203° |
| 2026-05-05 19:17 | 45.53757 | 8.88590 | 10998 ft | 287 kts | 202° |
| 2026-05-05 19:17 | 45.52048 | 8.88069 | 11001 ft | 276 kts | 180° |
| 2026-05-05 19:17 | 45.50274 | 8.88643 | 11013 ft | 284 kts | 157° |
| 2026-05-05 19:18 | 45.48543 | 8.89867 | 11001 ft | 301 kts | 154° |
| 2026-05-05 19:18 | 45.46729 | 8.91194 | 11000 ft | 298 kts | 154° |
| 2026-05-05 19:18 | 45.44904 | 8.92530 | 11000 ft | 298 kts | 154° |
| 2026-05-05 19:18 | 45.43148 | 8.93814 | 11000 ft | 299 kts | 154° |
| 2026-05-05 19:19 | 45.41385 | 8.95102 | 11000 ft | 299 kts | 154° |
| 2026-05-05 19:19 | 45.39691 | 8.96339 | 11000 ft | 299 kts | 154° |
| 2026-05-05 19:19 | 45.37967 | 8.97598 | 11000 ft | 299 kts | 154° |
| 2026-05-05 19:19 | 45.36233 | 8.98864 | 11000 ft | 298 kts | 154° |
| 2026-05-05 19:20 | 45.34472 | 9.00151 | 10985 ft | 298 kts | 154° |
| 2026-05-05 19:20 | 45.32640 | 9.01489 | 10822 ft | 296 kts | 154° |
| 2026-05-05 19:20 | 45.30823 | 9.02817 | 10490 ft | 296 kts | 154° |
| 2026-05-05 19:20 | 45.29123 | 9.04059 | 10151 ft | 294 kts | 154° |
| 2026-05-05 19:21 | 45.27311 | 9.05383 | 9774 ft | 293 kts | 154° |
| 2026-05-05 19:21 | 45.25522 | 9.06689 | 9398 ft | 291 kts | 154° |
| 2026-05-05 19:21 | 45.23880 | 9.07886 | 9045 ft | 290 kts | 155° |
| 2026-05-05 19:21 | 45.22287 | 9.08929 | 8709 ft | 287 kts | 159° |
| 2026-05-05 19:22 | 45.20544 | 9.09912 | 8341 ft | 286 kts | 160° |
| 2026-05-05 19:22 | 45.18731 | 9.10920 | 8222 ft | 274 kts | 160° |
| 2026-05-05 19:22 | 45.17009 | 9.11865 | 8115 ft | 262 kts | 165° |
| 2026-05-05 19:22 | 45.15466 | 9.12111 | 7988 ft | 247 kts | 191° |
| 2026-05-05 19:23 | 45.13961 | 9.11318 | 7659 ft | 239 kts | 219° |
| 2026-05-05 19:23 | 45.12967 | 9.09646 | 7289 ft | 235 kts | 248° |
| 2026-05-05 19:23 | 45.12619 | 9.07558 | 6937 ft | 234 kts | 264° |
| 2026-05-05 19:23 | 45.12755 | 9.05389 | 6594 ft | 232 kts | 291° |
| 2026-05-05 19:24 | 45.13606 | 9.03622 | 6255 ft | 233 kts | 313° |
| 2026-05-05 19:24 | 45.14673 | 9.02097 | 6071 ft | 229 kts | 313° |
| 2026-05-05 19:24 | 45.15764 | 9.00555 | 6036 ft | 234 kts | 313° |
| 2026-05-05 19:24 | 45.16861 | 8.99008 | 6034 ft | 233 kts | 313° |
| 2026-05-05 19:25 | 45.17961 | 8.97456 | 6034 ft | 233 kts | 313° |
| 2026-05-05 19:25 | 45.19060 | 8.95905 | 5933 ft | 231 kts | 313° |
| 2026-05-05 19:25 | 45.20128 | 8.94397 | 5667 ft | 231 kts | 313° |
| 2026-05-05 19:25 | 45.21265 | 8.92791 | 5365 ft | 231 kts | 313° |
| 2026-05-05 19:26 | 45.22394 | 8.91198 | 5053 ft | 230 kts | 313° |
| 2026-05-05 19:26 | 45.23526 | 8.89602 | 4759 ft | 229 kts | 313° |
| 2026-05-05 19:26 | 45.24584 | 8.88113 | 4471 ft | 228 kts | 313° |
| 2026-05-05 19:26 | 45.25652 | 8.86608 | 4185 ft | 227 kts | 313° |
| 2026-05-05 19:27 | 45.26762 | 8.85042 | 3886 ft | 226 kts | 313° |
| 2026-05-05 19:27 | 45.27830 | 8.83692 | 3711 ft | 219 kts | 324° |
| 2026-05-05 19:27 | 45.29046 | 8.82820 | 3547 ft | 206 kts | 341° |
| 2026-05-05 19:27 | 45.30421 | 8.82451 | 3699 ft | 229 kts | 350° |
| 2026-05-05 19:28 | 45.31935 | 8.82196 | 4349 ft | 234 kts | 351° |
| 2026-05-05 19:28 | 45.33512 | 8.81940 | 4355 ft | 263 kts | 351° |
| 2026-05-05 19:28 | 45.35220 | 8.81263 | 4598 ft | 270 kts | 326° |
| 2026-05-05 19:28 | 45.36413 | 8.79481 | 4857 ft | 276 kts | 302° |
| 2026-05-05 19:29 | 45.37389 | 8.77161 | 4847 ft | 294 kts | 298° |
| 2026-05-05 19:29 | 45.38350 | 8.74735 | 4895 ft | 305 kts | 307° |
| 2026-05-05 19:29 | 45.39811 | 8.72916 | 5511 ft | 287 kts | 341° |
| 2026-05-05 19:29 | 45.41474 | 8.72989 | 6979 ft | 256 kts | 19° |
| 2026-05-05 19:30 | 45.43028 | 8.74046 | 7184 ft | 275 kts | 25° |
| 2026-05-05 19:30 | 45.44741 | 8.74904 | 7334 ft | 285 kts | 14° |
| 2026-05-05 19:30 | 45.46756 | 8.75676 | 5279 ft | 357 kts | 10° |
| 2026-05-05 19:30 | 45.49235 | 8.76013 | 4261 ft | 386 kts | 358° |
| 2026-05-05 19:31 | 45.51649 | 8.75596 | 4314 ft | 373 kts | 347° |
| 2026-05-05 19:31 | 45.54056 | 8.74875 | 4282 ft | 369 kts | 347° |